sensor_id;sensor_type;location;lat;lon;timestamp;pressure;altitude;pressure_sealevel;temperature;humidity
68380;BME280;57711;53.196;19.638;2022-11-15T00:00:20;100513.86;;;7.32;70.98
68380;BME280;57711;53.196;19.638;2022-11-15T00:03:06;100521.16;;;7.31;70.97
68380;BME280;57711;53.196;19.638;2022-11-15T00:05:52;100515.48;;;7.32;70.85
68380;BME280;57711;53.196;19.638;2022-11-15T00:08:38;100509.40;;;7.27;70.85
68380;BME280;57711;53.196;19.638;2022-11-15T00:11:24;100500.13;;;7.28;70.82
68380;BME280;57711;53.196;19.638;2022-11-15T00:14:10;100496.02;;;7.33;70.99
68380;BME280;57711;53.196;19.638;2022-11-15T00:16:55;100495.54;;;7.34;70.93
68380;BME280;57711;53.196;19.638;2022-11-15T00:19:41;100493.14;;;7.35;70.91
68380;BME280;57711;53.196;19.638;2022-11-15T00:22:33;100490.25;;;7.38;70.92
68380;BME280;57711;53.196;19.638;2022-11-15T00:25:18;100484.48;;;7.36;70.85
68380;BME280;57711;53.196;19.638;2022-11-15T00:28:04;100479.42;;;7.31;70.97
68380;BME280;57711;53.196;19.638;2022-11-15T00:30:50;100475.94;;;7.32;70.90
68380;BME280;57711;53.196;19.638;2022-11-15T00:33:36;100474.98;;;7.30;70.74
68380;BME280;57711;53.196;19.638;2022-11-15T00:36:21;100471.87;;;7.23;70.72
68380;BME280;57711;53.196;19.638;2022-11-15T00:39:07;100464.21;;;7.25;70.83
68380;BME280;57711;53.196;19.638;2022-11-15T00:41:53;100465.25;;;7.23;70.83
68380;BME280;57711;53.196;19.638;2022-11-15T00:44:39;100460.23;;;7.23;70.90
68380;BME280;57711;53.196;19.638;2022-11-15T00:47:24;100456.77;;;7.24;70.83
68380;BME280;57711;53.196;19.638;2022-11-15T00:50:10;100459.94;;;7.24;70.90
68380;BME280;57711;53.196;19.638;2022-11-15T00:52:59;100455.77;;;7.20;70.98
68380;BME280;57711;53.196;19.638;2022-11-15T00:55:46;100452.87;;;7.17;70.96
68380;BME280;57711;53.196;19.638;2022-11-15T00:58:32;100450.27;;;7.18;71.08
68380;BME280;57711;53.196;19.638;2022-11-15T01:01:17;100449.25;;;7.25;70.97
68380;BME280;57711;53.196;19.638;2022-11-15T01:04:04;100446.21;;;7.33;71.01
68380;BME280;57711;53.196;19.638;2022-11-15T01:06:50;100441.61;;;7.34;70.83
68380;BME280;57711;53.196;19.638;2022-11-15T01:09:35;100440.09;;;7.33;70.76
68380;BME280;57711;53.196;19.638;2022-11-15T01:12:21;100441.30;;;7.31;70.99
68380;BME280;57711;53.196;19.638;2022-11-15T01:15:07;100442.23;;;7.30;70.98
68380;BME280;57711;53.196;19.638;2022-11-15T01:17:53;100440.27;;;7.28;70.99
68380;BME280;57711;53.196;19.638;2022-11-15T01:20:41;100428.13;;;7.21;70.88
68380;BME280;57711;53.196;19.638;2022-11-15T01:23:27;100430.04;;;7.17;71.01
68380;BME280;57711;53.196;19.638;2022-11-15T01:26:15;100429.08;;;7.18;70.89
68380;BME280;57711;53.196;19.638;2022-11-15T01:29:01;100428.56;;;7.20;70.94
68380;BME280;57711;53.196;19.638;2022-11-15T01:31:46;100426.31;;;7.17;70.76
68380;BME280;57711;53.196;19.638;2022-11-15T01:34:32;100423.85;;;7.06;70.65
68380;BME280;57711;53.196;19.638;2022-11-15T01:37:18;100417.50;;;6.97;70.92
68380;BME280;57711;53.196;19.638;2022-11-15T01:40:05;100419.06;;;6.98;70.98
68380;BME280;57711;53.196;19.638;2022-11-15T01:42:50;100413.77;;;6.96;70.87
68380;BME280;57711;53.196;19.638;2022-11-15T01:45:36;100407.00;;;6.93;70.98
68380;BME280;57711;53.196;19.638;2022-11-15T01:48:31;100407.64;;;6.99;70.94
68380;BME280;57711;53.196;19.638;2022-11-15T01:51:19;100405.71;;;6.98;70.88
68380;BME280;57711;53.196;19.638;2022-11-15T01:54:09;100395.86;;;6.97;71.04
68380;BME280;57711;53.196;19.638;2022-11-15T01:57:02;100387.98;;;6.97;70.89
68380;BME280;57711;53.196;19.638;2022-11-15T01:59:49;100389.28;;;6.97;70.84
68380;BME280;57711;53.196;19.638;2022-11-15T02:02:35;100387.23;;;6.95;70.96
68380;BME280;57711;53.196;19.638;2022-11-15T02:05:22;100383.04;;;6.94;70.92
68380;BME280;57711;53.196;19.638;2022-11-15T02:08:08;100383.66;;;6.92;71.05
68380;BME280;57711;53.196;19.638;2022-11-15T02:10:54;100380.81;;;6.89;70.97
68380;BME280;57711;53.196;19.638;2022-11-15T02:13:40;100379.34;;;6.87;70.97
68380;BME280;57711;53.196;19.638;2022-11-15T02:16:43;100374.62;;;6.88;71.00
68380;BME280;57711;53.196;19.638;2022-11-15T02:22:29;100367.05;;;6.98;71.07
68380;BME280;57711;53.196;19.638;2022-11-15T02:29:14;100354.64;;;7.13;71.15
68380;BME280;57711;53.196;19.638;2022-11-15T02:32:06;100351.35;;;7.11;71.07
68380;BME280;57711;53.196;19.638;2022-11-15T02:35:37;100349.29;;;7.10;71.03
68380;BME280;57711;53.196;19.638;2022-11-15T02:38:58;100354.19;;;7.05;70.90
68380;BME280;57711;53.196;19.638;2022-11-15T02:42:13;100349.02;;;6.99;70.95
68380;BME280;57711;53.196;19.638;2022-11-15T02:45:27;100343.13;;;6.96;70.85
68380;BME280;57711;53.196;19.638;2022-11-15T02:48:15;100335.61;;;6.86;70.87
68380;BME280;57711;53.196;19.638;2022-11-15T02:51:03;100330.63;;;6.80;70.93
68380;BME280;57711;53.196;19.638;2022-11-15T02:53:49;100327.86;;;6.79;71.07
68380;BME280;57711;53.196;19.638;2022-11-15T02:56:35;100329.36;;;6.73;70.99
68380;BME280;57711;53.196;19.638;2022-11-15T03:05:34;100323.77;;;6.63;71.05
68380;BME280;57711;53.196;19.638;2022-11-15T03:08:28;100322.20;;;6.60;71.11
68380;BME280;57711;53.196;19.638;2022-11-15T03:11:18;100310.44;;;6.66;71.24
68380;BME280;57711;53.196;19.638;2022-11-15T03:19:57;100315.90;;;6.77;71.22
68380;BME280;57711;53.196;19.638;2022-11-15T03:22:46;100309.80;;;6.77;71.41
68380;BME280;57711;53.196;19.638;2022-11-15T03:25:33;100303.21;;;6.82;71.29
68380;BME280;57711;53.196;19.638;2022-11-15T03:28:24;100299.13;;;6.83;71.05
68380;BME280;57711;53.196;19.638;2022-11-15T03:31:13;100297.73;;;6.83;71.18
68380;BME280;57711;53.196;19.638;2022-11-15T03:37:22;100282.30;;;6.77;71.16
68380;BME280;57711;53.196;19.638;2022-11-15T03:40:10;100279.09;;;6.79;71.14
68380;BME280;57711;53.196;19.638;2022-11-15T03:43:09;100268.95;;;6.78;71.23
68380;BME280;57711;53.196;19.638;2022-11-15T03:46:01;100265.14;;;6.81;71.25
68380;BME280;57711;53.196;19.638;2022-11-15T03:48:51;100265.19;;;6.78;71.19
68380;BME280;57711;53.196;19.638;2022-11-15T03:51:37;100257.50;;;6.75;71.22
68380;BME280;57711;53.196;19.638;2022-11-15T03:54:24;100256.71;;;6.78;71.21
68380;BME280;57711;53.196;19.638;2022-11-15T03:57:09;100253.48;;;6.86;71.21
68380;BME280;57711;53.196;19.638;2022-11-15T03:59:55;100253.14;;;6.92;71.29
68380;BME280;57711;53.196;19.638;2022-11-15T04:02:41;100249.94;;;6.99;71.11
68380;BME280;57711;53.196;19.638;2022-11-15T04:05:27;100248.59;;;6.96;71.10
68380;BME280;57711;53.196;19.638;2022-11-15T04:08:12;100246.73;;;6.94;71.27
68380;BME280;57711;53.196;19.638;2022-11-15T04:10:58;100250.70;;;6.89;71.06
68380;BME280;57711;53.196;19.638;2022-11-15T04:13:46;100248.80;;;6.81;71.18
68380;BME280;57711;53.196;19.638;2022-11-15T04:16:32;100249.87;;;6.73;70.90
68380;BME280;57711;53.196;19.638;2022-11-15T04:19:17;100252.52;;;6.69;71.05
68380;BME280;57711;53.196;19.638;2022-11-15T04:22:21;100247.86;;;6.62;71.01
68380;BME280;57711;53.196;19.638;2022-11-15T04:25:26;100248.98;;;6.54;71.03
68380;BME280;57711;53.196;19.638;2022-11-15T04:28:16;100247.33;;;6.52;71.22
68380;BME280;57711;53.196;19.638;2022-11-15T04:31:02;100251.80;;;6.50;71.39
68380;BME280;57711;53.196;19.638;2022-11-15T04:33:48;100249.13;;;6.47;71.43
68380;BME280;57711;53.196;19.638;2022-11-15T04:36:33;100254.35;;;6.52;71.58
68380;BME280;57711;53.196;19.638;2022-11-15T04:39:39;100254.94;;;6.61;71.66
68380;BME280;57711;53.196;19.638;2022-11-15T04:42:25;100254.73;;;6.69;71.47
68380;BME280;57711;53.196;19.638;2022-11-15T04:45:11;100250.91;;;6.74;71.58
68380;BME280;57711;53.196;19.638;2022-11-15T04:47:57;100252.94;;;6.76;71.39
68380;BME280;57711;53.196;19.638;2022-11-15T04:50:43;100247.93;;;6.73;71.37
68380;BME280;57711;53.196;19.638;2022-11-15T04:53:29;100253.90;;;6.75;71.56
68380;BME280;57711;53.196;19.638;2022-11-15T04:56:15;100248.60;;;6.71;71.44
68380;BME280;57711;53.196;19.638;2022-11-15T04:59:01;100244.79;;;6.67;71.54
68380;BME280;57711;53.196;19.638;2022-11-15T05:01:47;100246.38;;;6.60;71.30
68380;BME280;57711;53.196;19.638;2022-11-15T05:04:33;100250.77;;;6.54;71.25
68380;BME280;57711;53.196;19.638;2022-11-15T05:07:18;100242.89;;;6.49;71.30
68380;BME280;57711;53.196;19.638;2022-11-15T05:10:05;100236.61;;;6.46;71.40
68380;BME280;57711;53.196;19.638;2022-11-15T05:12:50;100231.14;;;6.47;71.66
68380;BME280;57711;53.196;19.638;2022-11-15T05:15:36;100230.31;;;6.51;71.55
68380;BME280;57711;53.196;19.638;2022-11-15T05:18:22;100219.46;;;6.50;71.50
68380;BME280;57711;53.196;19.638;2022-11-15T05:21:10;100212.30;;;6.47;71.59
68380;BME280;57711;53.196;19.638;2022-11-15T05:23:56;100205.95;;;6.45;71.40
68380;BME280;57711;53.196;19.638;2022-11-15T05:26:42;100201.78;;;6.48;71.48
68380;BME280;57711;53.196;19.638;2022-11-15T05:29:28;100193.91;;;6.43;71.36
68380;BME280;57711;53.196;19.638;2022-11-15T05:32:14;100197.52;;;6.40;71.32
68380;BME280;57711;53.196;19.638;2022-11-15T05:35:00;100198.00;;;6.36;71.63
68380;BME280;57711;53.196;19.638;2022-11-15T05:37:46;100189.70;;;6.34;71.62
68380;BME280;57711;53.196;19.638;2022-11-15T05:40:33;100187.92;;;6.36;71.77
68380;BME280;57711;53.196;19.638;2022-11-15T05:43:20;100189.68;;;6.39;71.49
68380;BME280;57711;53.196;19.638;2022-11-15T05:46:06;100183.73;;;6.44;71.83
68380;BME280;57711;53.196;19.638;2022-11-15T05:48:52;100184.48;;;6.54;71.83
68380;BME280;57711;53.196;19.638;2022-11-15T05:51:39;100188.71;;;6.60;71.81
68380;BME280;57711;53.196;19.638;2022-11-15T05:54:27;100193.83;;;6.64;71.57
68380;BME280;57711;53.196;19.638;2022-11-15T05:57:13;100201.40;;;6.66;71.69
68380;BME280;57711;53.196;19.638;2022-11-15T05:59:58;100201.03;;;6.68;71.62
68380;BME280;57711;53.196;19.638;2022-11-15T06:02:44;100207.01;;;6.60;71.50
68380;BME280;57711;53.196;19.638;2022-11-15T06:05:30;100204.31;;;6.58;71.76
68380;BME280;57711;53.196;19.638;2022-11-15T06:08:15;100202.39;;;6.52;71.69
68380;BME280;57711;53.196;19.638;2022-11-15T06:11:05;100205.86;;;6.49;71.76
68380;BME280;57711;53.196;19.638;2022-11-15T06:13:51;100208.41;;;6.46;71.52
68380;BME280;57711;53.196;19.638;2022-11-15T06:16:37;100222.60;;;6.41;71.50
68380;BME280;57711;53.196;19.638;2022-11-15T06:19:23;100221.63;;;6.34;71.56
68380;BME280;57711;53.196;19.638;2022-11-15T06:22:09;100224.48;;;6.30;71.66
68380;BME280;57711;53.196;19.638;2022-11-15T06:24:55;100226.77;;;6.31;71.91
68380;BME280;57711;53.196;19.638;2022-11-15T06:27:54;100230.70;;;6.33;71.91
68380;BME280;57711;53.196;19.638;2022-11-15T06:30:40;100228.50;;;6.34;71.72
68380;BME280;57711;53.196;19.638;2022-11-15T06:33:25;100231.66;;;6.37;71.92
68380;BME280;57711;53.196;19.638;2022-11-15T06:36:13;100235.32;;;6.39;71.63
68380;BME280;57711;53.196;19.638;2022-11-15T06:39:03;100238.05;;;6.44;71.82
68380;BME280;57711;53.196;19.638;2022-11-15T06:41:49;100235.63;;;6.55;71.96
68380;BME280;57711;53.196;19.638;2022-11-15T06:44:35;100238.29;;;6.62;71.78
68380;BME280;57711;53.196;19.638;2022-11-15T06:47:21;100242.83;;;6.67;71.80
68380;BME280;57711;53.196;19.638;2022-11-15T06:50:07;100242.21;;;6.65;71.77
68380;BME280;57711;53.196;19.638;2022-11-15T06:52:53;100239.55;;;6.55;71.52
68380;BME280;57711;53.196;19.638;2022-11-15T06:55:40;100248.80;;;6.47;71.80
68380;BME280;57711;53.196;19.638;2022-11-15T06:58:26;100240.63;;;6.48;71.72
68380;BME280;57711;53.196;19.638;2022-11-15T07:01:12;100243.88;;;6.50;71.77
68380;BME280;57711;53.196;19.638;2022-11-15T07:03:58;100242.48;;;6.49;71.81
68380;BME280;57711;53.196;19.638;2022-11-15T07:06:49;100240.77;;;6.43;71.60
68380;BME280;57711;53.196;19.638;2022-11-15T07:09:34;100240.70;;;6.36;71.67
68380;BME280;57711;53.196;19.638;2022-11-15T07:12:20;100234.95;;;6.32;71.71
68380;BME280;57711;53.196;19.638;2022-11-15T07:15:07;100231.77;;;6.28;71.84
68380;BME280;57711;53.196;19.638;2022-11-15T07:17:52;100235.59;;;6.35;72.01
68380;BME280;57711;53.196;19.638;2022-11-15T07:20:38;100229.91;;;6.39;72.09
68380;BME280;57711;53.196;19.638;2022-11-15T07:23:25;100224.07;;;6.43;72.10
68380;BME280;57711;53.196;19.638;2022-11-15T07:26:11;100222.30;;;6.50;71.96
68380;BME280;57711;53.196;19.638;2022-11-15T07:28:56;100216.48;;;6.54;71.92
68380;BME280;57711;53.196;19.638;2022-11-15T07:31:43;100215.70;;;6.59;72.00
68380;BME280;57711;53.196;19.638;2022-11-15T07:34:29;100215.41;;;6.64;71.83
68380;BME280;57711;53.196;19.638;2022-11-15T07:37:14;100213.82;;;6.65;71.88
68380;BME280;57711;53.196;19.638;2022-11-15T07:40:02;100210.98;;;6.65;71.92
68380;BME280;57711;53.196;19.638;2022-11-15T07:42:48;100213.14;;;6.65;71.89
68380;BME280;57711;53.196;19.638;2022-11-15T07:45:42;100210.93;;;6.61;71.88
68380;BME280;57711;53.196;19.638;2022-11-15T07:48:28;100213.42;;;6.59;71.96
68380;BME280;57711;53.196;19.638;2022-11-15T07:51:28;100209.12;;;6.61;72.14
68380;BME280;57711;53.196;19.638;2022-11-15T07:54:13;100211.15;;;6.65;72.00
68380;BME280;57711;53.196;19.638;2022-11-15T07:56:59;100209.36;;;6.67;71.73
68380;BME280;57711;53.196;19.638;2022-11-15T07:59:51;100207.30;;;6.66;71.84
68380;BME280;57711;53.196;19.638;2022-11-15T08:02:37;100204.61;;;6.66;71.93
68380;BME280;57711;53.196;19.638;2022-11-15T08:05:23;100200.96;;;6.62;71.83
68380;BME280;57711;53.196;19.638;2022-11-15T08:08:10;100199.45;;;6.58;71.86
68380;BME280;57711;53.196;19.638;2022-11-15T08:10:59;100195.67;;;6.55;71.97
68380;BME280;57711;53.196;19.638;2022-11-15T08:13:46;100198.40;;;6.55;71.92
68380;BME280;57711;53.196;19.638;2022-11-15T08:16:31;100193.77;;;6.55;72.19
68380;BME280;57711;53.196;19.638;2022-11-15T08:19:17;100193.84;;;6.56;72.09
68380;BME280;57711;53.196;19.638;2022-11-15T08:22:03;100192.61;;;6.56;72.11
68380;BME280;57711;53.196;19.638;2022-11-15T08:24:49;100188.90;;;6.60;72.25
68380;BME280;57711;53.196;19.638;2022-11-15T08:27:35;100188.27;;;6.69;72.17
68380;BME280;57711;53.196;19.638;2022-11-15T08:30:21;100187.21;;;6.75;71.92
68380;BME280;57711;53.196;19.638;2022-11-15T08:33:11;100191.79;;;6.78;72.00
68380;BME280;57711;53.196;19.638;2022-11-15T08:36:00;100189.96;;;6.82;72.03
68380;BME280;57711;53.196;19.638;2022-11-15T08:38:46;100186.65;;;6.86;72.18
68380;BME280;57711;53.196;19.638;2022-11-15T08:41:34;100194.70;;;6.81;71.93
68380;BME280;57711;53.196;19.638;2022-11-15T08:44:22;100193.73;;;6.74;71.88
68380;BME280;57711;53.196;19.638;2022-11-15T08:47:11;100198.86;;;6.73;72.00
68380;BME280;57711;53.196;19.638;2022-11-15T08:49:57;100197.81;;;6.75;72.10
68380;BME280;57711;53.196;19.638;2022-11-15T08:52:42;100201.31;;;6.79;72.06
68380;BME280;57711;53.196;19.638;2022-11-15T08:55:28;100202.05;;;6.81;72.08
68380;BME280;57711;53.196;19.638;2022-11-15T08:58:13;100196.20;;;6.83;72.00
68380;BME280;57711;53.196;19.638;2022-11-15T09:00:59;100192.48;;;6.87;72.18
68380;BME280;57711;53.196;19.638;2022-11-15T09:03:45;100185.27;;;6.89;72.23
68380;BME280;57711;53.196;19.638;2022-11-15T09:06:31;100180.19;;;6.90;72.13
68380;BME280;57711;53.196;19.638;2022-11-15T09:09:17;100176.45;;;6.87;72.14
68380;BME280;57711;53.196;19.638;2022-11-15T09:12:03;100174.20;;;6.86;72.29
68380;BME280;57711;53.196;19.638;2022-11-15T09:14:48;100173.44;;;6.87;72.34
68380;BME280;57711;53.196;19.638;2022-11-15T09:17:34;100169.19;;;6.90;72.22
68380;BME280;57711;53.196;19.638;2022-11-15T09:20:20;100168.17;;;6.94;72.24
68380;BME280;57711;53.196;19.638;2022-11-15T09:23:06;100168.25;;;7.00;72.15
68380;BME280;57711;53.196;19.638;2022-11-15T09:25:58;100167.20;;;7.03;72.28
68380;BME280;57711;53.196;19.638;2022-11-15T09:28:44;100164.34;;;6.97;72.10
68380;BME280;57711;53.196;19.638;2022-11-15T09:31:30;100158.39;;;6.98;72.21
68380;BME280;57711;53.196;19.638;2022-11-15T09:34:16;100158.20;;;7.00;72.33
68380;BME280;57711;53.196;19.638;2022-11-15T09:37:02;100158.17;;;7.03;72.44
68380;BME280;57711;53.196;19.638;2022-11-15T09:39:48;100159.30;;;7.05;72.34
68380;BME280;57711;53.196;19.638;2022-11-15T09:42:45;100159.80;;;7.03;72.25
68380;BME280;57711;53.196;19.638;2022-11-15T09:48:57;100154.52;;;7.01;72.32
68380;BME280;57711;53.196;19.638;2022-11-15T09:51:47;100163.05;;;7.00;72.12
68380;BME280;57711;53.196;19.638;2022-11-15T09:54:30;100162.50;;;6.96;72.11
68380;BME280;57711;53.196;19.638;2022-11-15T09:57:37;100161.00;;;6.94;72.23
68380;BME280;57711;53.196;19.638;2022-11-15T10:00:24;100150.22;;;6.96;72.25
68380;BME280;57711;53.196;19.638;2022-11-15T10:03:14;100144.80;;;7.02;72.22
68380;BME280;57711;53.196;19.638;2022-11-15T10:05:44;100141.91;;;6.99;72.34
68380;BME280;57711;53.196;19.638;2022-11-15T10:10:56;100140.84;;;6.94;72.22
68380;BME280;57711;53.196;19.638;2022-11-15T10:13:46;100135.40;;;6.93;72.26
68380;BME280;57711;53.196;19.638;2022-11-15T10:16:47;100127.23;;;6.96;72.32
68380;BME280;57711;53.196;19.638;2022-11-15T10:19:50;100123.58;;;7.06;72.45
68380;BME280;57711;53.196;19.638;2022-11-15T10:22:28;100120.52;;;7.13;72.39
68380;BME280;57711;53.196;19.638;2022-11-15T10:27:30;100121.56;;;7.23;72.34
68380;BME280;57711;53.196;19.638;2022-11-15T10:29:57;100118.45;;;7.26;72.19
68380;BME280;57711;53.196;19.638;2022-11-15T10:32:25;100121.85;;;7.20;72.18
68380;BME280;57711;53.196;19.638;2022-11-15T10:34:52;100117.56;;;7.19;72.30
68380;BME280;57711;53.196;19.638;2022-11-15T10:37:28;100117.26;;;7.26;72.43
68380;BME280;57711;53.196;19.638;2022-11-15T10:40:25;100119.67;;;7.31;72.55
68380;BME280;57711;53.196;19.638;2022-11-15T10:43:06;100115.80;;;7.35;72.58
68380;BME280;57711;53.196;19.638;2022-11-15T10:45:39;100114.63;;;7.36;72.36
68380;BME280;57711;53.196;19.638;2022-11-15T10:48:24;100112.70;;;7.43;72.32
68380;BME280;57711;53.196;19.638;2022-11-15T10:50:53;100108.17;;;7.50;72.51
68380;BME280;57711;53.196;19.638;2022-11-15T10:53:24;100106.48;;;7.57;72.40
68380;BME280;57711;53.196;19.638;2022-11-15T10:55:56;100102.78;;;7.66;72.42
68380;BME280;57711;53.196;19.638;2022-11-15T11:01:31;100089.80;;;7.75;72.29
68380;BME280;57711;53.196;19.638;2022-11-15T11:04:12;100091.16;;;7.73;72.28
68380;BME280;57711;53.196;19.638;2022-11-15T11:06:49;100086.73;;;7.73;72.42
68380;BME280;57711;53.196;19.638;2022-11-15T11:09:36;100090.27;;;7.76;72.56
68380;BME280;57711;53.196;19.638;2022-11-15T11:12:06;100083.52;;;7.79;72.43
68380;BME280;57711;53.196;19.638;2022-11-15T11:14:38;100082.34;;;7.78;72.56
68380;BME280;57711;53.196;19.638;2022-11-15T11:17:32;100083.22;;;7.81;72.30
68380;BME280;57711;53.196;19.638;2022-11-15T11:20:06;100085.55;;;7.85;72.45
68380;BME280;57711;53.196;19.638;2022-11-15T11:25:36;100079.15;;;7.91;72.18
68380;BME280;57711;53.196;19.638;2022-11-15T11:33:21;100072.83;;;7.89;72.08
68380;BME280;57711;53.196;19.638;2022-11-15T11:36:20;100063.00;;;7.88;72.29
68380;BME280;57711;53.196;19.638;2022-11-15T11:41:48;100062.70;;;7.89;72.51
68380;BME280;57711;53.196;19.638;2022-11-15T11:44:35;100062.69;;;7.89;72.48
68380;BME280;57711;53.196;19.638;2022-11-15T11:47:16;100063.27;;;7.85;72.27
68380;BME280;57711;53.196;19.638;2022-11-15T11:52:31;100058.45;;;7.80;72.29
68380;BME280;57711;53.196;19.638;2022-11-15T11:55:14;100054.94;;;7.81;72.30
68380;BME280;57711;53.196;19.638;2022-11-15T12:00:21;100049.19;;;7.85;72.33
68380;BME280;57711;53.196;19.638;2022-11-15T12:03:09;100049.30;;;7.86;72.25
68380;BME280;57711;53.196;19.638;2022-11-15T12:10:58;100052.52;;;7.91;72.34
68380;BME280;57711;53.196;19.638;2022-11-15T12:13:30;100049.71;;;7.92;72.49
68380;BME280;57711;53.196;19.638;2022-11-15T12:16:10;100051.40;;;7.87;72.52
68380;BME280;57711;53.196;19.638;2022-11-15T12:18:41;100051.48;;;7.86;72.61
68380;BME280;57711;53.196;19.638;2022-11-15T12:21:29;100054.24;;;7.89;72.41
68380;BME280;57711;53.196;19.638;2022-11-15T12:24:04;100050.09;;;7.94;72.47
68380;BME280;57711;53.196;19.638;2022-11-15T12:26:41;100037.15;;;7.96;72.34
68380;BME280;57711;53.196;19.638;2022-11-15T12:29:19;100034.90;;;8.00;72.41
68380;BME280;57711;53.196;19.638;2022-11-15T12:31:50;100033.53;;;8.01;72.35
68380;BME280;57711;53.196;19.638;2022-11-15T12:36:51;100024.55;;;7.96;72.21
68380;BME280;57711;53.196;19.638;2022-11-15T12:39:19;100025.66;;;7.98;72.47
68380;BME280;57711;53.196;19.638;2022-11-15T12:47:02;100019.11;;;8.01;72.44
68380;BME280;57711;53.196;19.638;2022-11-15T13:00:00;100021.93;;;8.10;72.52
68380;BME280;57711;53.196;19.638;2022-11-15T13:02:42;100024.17;;;8.11;72.31
68380;BME280;57711;53.196;19.638;2022-11-15T13:17:39;100009.38;;;8.03;72.10
68380;BME280;57711;53.196;19.638;2022-11-15T13:25:44;100006.02;;;8.05;72.30
68380;BME280;57711;53.196;19.638;2022-11-15T13:30:55;100007.65;;;8.00;72.21
68380;BME280;57711;53.196;19.638;2022-11-15T13:33:28;100001.52;;;8.00;72.34
68380;BME280;57711;53.196;19.638;2022-11-15T13:36:08;100004.67;;;8.02;72.20
68380;BME280;57711;53.196;19.638;2022-11-15T13:38:38;99999.23;;;8.04;72.27
68380;BME280;57711;53.196;19.638;2022-11-15T13:41:18;100000.42;;;8.05;72.36
68380;BME280;57711;53.196;19.638;2022-11-15T13:43:48;99995.35;;;8.03;72.33
68380;BME280;57711;53.196;19.638;2022-11-15T13:46:18;99999.64;;;8.01;72.32
68380;BME280;57711;53.196;19.638;2022-11-15T13:48:47;99993.77;;;8.00;72.40
68380;BME280;57711;53.196;19.638;2022-11-15T13:51:25;99994.55;;;8.00;72.27
68380;BME280;57711;53.196;19.638;2022-11-15T13:54:01;99996.18;;;8.02;72.34
68380;BME280;57711;53.196;19.638;2022-11-15T13:56:31;99997.97;;;8.02;72.25
68380;BME280;57711;53.196;19.638;2022-11-15T13:59:09;100000.95;;;8.01;72.30
68380;BME280;57711;53.196;19.638;2022-11-15T14:01:36;100000.27;;;8.00;72.32
68380;BME280;57711;53.196;19.638;2022-11-15T14:04:04;100002.36;;;7.99;72.27
68380;BME280;57711;53.196;19.638;2022-11-15T14:06:31;100005.20;;;7.97;72.37
68380;BME280;57711;53.196;19.638;2022-11-15T14:11:50;100000.23;;;7.94;72.44
68380;BME280;57711;53.196;19.638;2022-11-15T14:14:20;99999.63;;;7.88;72.48
68380;BME280;57711;53.196;19.638;2022-11-15T14:16:58;99988.96;;;7.84;72.30
68380;BME280;57711;53.196;19.638;2022-11-15T14:22:13;99983.46;;;7.85;72.28
68380;BME280;57711;53.196;19.638;2022-11-15T14:24:44;99984.52;;;7.88;72.37
68380;BME280;57711;53.196;19.638;2022-11-15T14:27:26;99986.11;;;7.88;72.11
68380;BME280;57711;53.196;19.638;2022-11-15T14:29:54;99984.38;;;7.89;72.17
68380;BME280;57711;53.196;19.638;2022-11-15T14:32:25;99981.14;;;7.89;72.29
68380;BME280;57711;53.196;19.638;2022-11-15T14:35:01;99980.36;;;7.88;72.28
68380;BME280;57711;53.196;19.638;2022-11-15T14:37:31;99976.33;;;7.89;72.24
68380;BME280;57711;53.196;19.638;2022-11-15T14:40:02;99971.23;;;7.85;72.21
68380;BME280;57711;53.196;19.638;2022-11-15T14:42:30;99968.74;;;7.78;72.00
68380;BME280;57711;53.196;19.638;2022-11-15T14:44:57;99967.55;;;7.78;72.08
68380;BME280;57711;53.196;19.638;2022-11-15T14:47:25;99969.67;;;7.80;72.32
68380;BME280;57711;53.196;19.638;2022-11-15T14:49:52;99971.98;;;7.79;72.07
68380;BME280;57711;53.196;19.638;2022-11-15T14:54:46;99969.55;;;7.82;72.14
68380;BME280;57711;53.196;19.638;2022-11-15T14:57:13;99968.64;;;7.84;72.31
68380;BME280;57711;53.196;19.638;2022-11-15T14:59:40;99968.41;;;7.87;72.37
68380;BME280;57711;53.196;19.638;2022-11-15T15:02:21;99966.05;;;7.87;72.29
68380;BME280;57711;53.196;19.638;2022-11-15T15:04:49;99963.05;;;7.84;72.32
68380;BME280;57711;53.196;19.638;2022-11-15T15:07:17;99960.33;;;7.82;72.17
68380;BME280;57711;53.196;19.638;2022-11-15T15:09:45;99957.70;;;7.75;72.22
68380;BME280;57711;53.196;19.638;2022-11-15T15:14:42;99962.80;;;7.70;72.19
68380;BME280;57711;53.196;19.638;2022-11-15T15:17:09;99964.03;;;7.70;72.17
68380;BME280;57711;53.196;19.638;2022-11-15T15:19:36;99967.93;;;7.71;71.99
68380;BME280;57711;53.196;19.638;2022-11-15T15:22:04;99970.32;;;7.72;72.08
68380;BME280;57711;53.196;19.638;2022-11-15T15:24:31;99973.63;;;7.72;72.03
68380;BME280;57711;53.196;19.638;2022-11-15T15:26:58;99969.45;;;7.70;72.15
68380;BME280;57711;53.196;19.638;2022-11-15T15:29:27;99972.16;;;7.70;72.03
68380;BME280;57711;53.196;19.638;2022-11-15T15:31:54;99973.90;;;7.68;72.08
68380;BME280;57711;53.196;19.638;2022-11-15T15:34:21;99969.58;;;7.66;71.99
68380;BME280;57711;53.196;19.638;2022-11-15T15:36:48;99966.54;;;7.66;72.25
68380;BME280;57711;53.196;19.638;2022-11-15T15:39:15;99967.77;;;7.66;72.10
68380;BME280;57711;53.196;19.638;2022-11-15T15:41:42;99964.23;;;7.68;72.19
68380;BME280;57711;53.196;19.638;2022-11-15T15:44:10;99967.23;;;7.68;72.07
68380;BME280;57711;53.196;19.638;2022-11-15T15:46:37;99965.61;;;7.68;72.02
68380;BME280;57711;53.196;19.638;2022-11-15T15:49:04;99963.08;;;7.71;72.05
68380;BME280;57711;53.196;19.638;2022-11-15T15:51:31;99959.77;;;7.74;72.18
68380;BME280;57711;53.196;19.638;2022-11-15T15:53:58;99960.15;;;7.76;72.00
68380;BME280;57711;53.196;19.638;2022-11-15T15:56:25;99962.25;;;7.74;71.92
68380;BME280;57711;53.196;19.638;2022-11-15T15:58:52;99959.56;;;7.72;72.02